createdAt,value
2024-04-11T00:00:13.114Z,69.88
2024-04-11T00:01:14.093Z,69.26
2024-04-11T00:02:14.739Z,69.50
2024-04-11T00:03:15.303Z,69.47
2024-04-11T00:04:15.867Z,69.91
2024-04-11T00:05:16.284Z,70.12
2024-04-11T00:06:17.196Z,70.73
2024-04-11T00:07:18.104Z,69.91
2024-04-11T00:08:19.050Z,70.12
2024-04-11T00:09:20.286Z,69.60
2024-04-11T00:10:20.739Z,69.50
2024-04-11T00:11:22.414Z,69.70
2024-04-11T00:12:22.485Z,70.12
2024-04-11T00:13:23.426Z,70.32
2024-04-11T00:14:25.295Z,70.12
2024-04-11T00:15:25.182Z,70.22
2024-04-11T00:16:27.853Z,70.73
2024-04-11T00:17:26.763Z,71.14
2024-04-11T00:18:28.170Z,70.12
2024-04-11T00:19:28.652Z,71.76
2024-04-11T00:20:29.648Z,70.63
2024-04-11T00:21:30.154Z,70.94
2024-04-11T00:22:31.126Z,70.84
2024-04-11T00:23:32.102Z,70.42
2024-04-11T00:24:32.983Z,70.42
2024-04-11T00:25:33.924Z,70.53
2024-04-11T00:26:35.810Z,70.42
2024-04-11T00:27:35.720Z,70.22
2024-04-11T00:28:37.780Z,70.73
2024-04-11T00:29:38.841Z,70.42
2024-04-11T00:30:39.293Z,70.32
2024-04-11T00:31:38.739Z,70.73
2024-04-11T00:32:40.378Z,70.53
2024-04-11T00:33:40.436Z,70.94
2024-04-11T00:34:40.927Z,70.42
2024-04-11T00:35:41.514Z,70.32
2024-04-11T00:36:42.469Z,70.53
2024-04-11T00:37:43.426Z,70.53
2024-04-11T00:38:44.388Z,70.94
2024-04-11T00:39:45.292Z,70.94
2024-04-11T00:40:46.250Z,70.42
2024-04-11T00:41:47.295Z,70.42
2024-04-11T00:42:48.004Z,70.84
2024-04-11T00:43:48.414Z,70.84
2024-04-11T00:44:50.320Z,70.73
2024-04-11T00:45:50.787Z,70.84
2024-04-11T00:46:50.767Z,71.25
2024-04-11T00:47:54.446Z,70.73
2024-04-11T00:48:53.363Z,71.04
2024-04-11T00:49:53.254Z,71.35
2024-04-11T00:50:54.205Z,71.55
2024-04-11T00:51:55.181Z,71.35
2024-04-11T00:52:56.074Z,71.14
2024-04-11T00:53:57.058Z,71.25
2024-04-11T00:54:57.501Z,71.55
2024-04-11T00:55:58.452Z,71.59
2024-04-11T00:57:00.407Z,70.84
2024-04-11T00:58:00.810Z,70.87
2024-04-11T00:59:02.350Z,71.66
2024-04-11T01:00:03.161Z,71.97
2024-04-11T01:01:02.462Z,71.45
2024-04-11T01:02:04.802Z,70.84
2024-04-11T01:03:04.443Z,71.17
2024-04-11T01:04:05.397Z,71.79
2024-04-11T01:05:05.323Z,70.73
2024-04-11T01:06:06.282Z,70.87
2024-04-11T01:07:07.920Z,71.04
2024-04-11T01:08:08.970Z,72.17
2024-04-11T01:09:08.876Z,71.55
2024-04-11T01:10:09.841Z,71.69
2024-04-11T01:11:10.904Z,71.38
2024-04-11T01:12:11.389Z,71.48
2024-04-11T01:13:11.856Z,71.69
2024-04-11T01:14:12.442Z,71.28
2024-04-11T01:15:13.408Z,71.08
2024-04-11T01:16:15.287Z,71.79
2024-04-11T01:17:15.913Z,71.38
2024-04-11T01:18:17.068Z,71.14
2024-04-11T01:19:16.599Z,71.55
2024-04-11T01:20:18.915Z,71.04
2024-04-11T01:21:18.337Z,71.76
2024-04-11T01:22:19.238Z,71.55
2024-04-11T01:23:20.896Z,71.35
2024-04-11T01:24:23.787Z,71.25
2024-04-11T01:25:22.324Z,71.45
2024-04-11T01:26:22.528Z,71.66
2024-04-11T01:27:23.022Z,71.86
2024-04-11T01:28:23.831Z,71.86
2024-04-11T01:29:27.305Z,71.97
2024-04-11T01:30:25.718Z,71.86
2024-04-11T01:31:26.598Z,72.38
2024-04-11T01:32:27.706Z,72.38
2024-04-11T01:33:28.666Z,72.61
2024-04-11T01:34:29.223Z,71.79
2024-04-11T01:35:30.316Z,72.06
2024-04-11T01:36:30.789Z,72.89
2024-04-11T01:37:31.318Z,71.86
2024-04-11T01:38:31.369Z,72.78
2024-04-11T01:39:31.742Z,72.48
2024-04-11T01:40:32.656Z,72.38
2024-04-11T01:41:33.638Z,71.86
2024-04-11T01:42:35.289Z,72.48
2024-04-11T01:43:35.777Z,71.97
2024-04-11T01:44:36.195Z,72.48
2024-04-11T01:45:37.123Z,72.78
2024-04-11T01:46:38.830Z,72.20
2024-04-11T01:47:38.942Z,72.48
2024-04-11T01:48:39.543Z,72.10
2024-04-11T01:49:41.807Z,72.78
2024-04-11T01:50:40.793Z,72.48
2024-04-11T01:51:41.695Z,72.78
2024-04-11T01:52:43.043Z,72.58
2024-04-11T01:53:44.407Z,72.38
2024-04-11T01:54:44.786Z,72.58
2024-04-11T01:55:45.222Z,72.78
2024-04-11T01:56:46.325Z,72.68
2024-04-11T01:57:46.762Z,72.68
2024-04-11T01:58:47.685Z,72.58
2024-04-11T01:59:51.407Z,73.19
2024-04-11T02:00:49.414Z,73.19
2024-04-11T02:01:51.283Z,72.89
2024-04-11T02:02:51.558Z,72.58
2024-04-11T02:03:51.728Z,72.89
2024-04-11T02:04:52.343Z,73.50
2024-04-11T02:05:57.413Z,72.89
2024-04-11T02:06:55.320Z,73.91
2024-04-11T02:07:54.222Z,72.78
2024-04-11T02:08:55.177Z,72.38
2024-04-11T02:09:57.806Z,72.58
2024-04-11T02:10:56.762Z,72.38
2024-04-11T02:11:57.912Z,72.58
2024-04-11T02:13:00.799Z,72.68
2024-04-11T02:13:59.297Z,73.19
2024-04-11T02:15:00.387Z,73.19
2024-04-11T02:16:01.791Z,72.58
2024-04-11T02:17:02.412Z,72.48
2024-04-11T02:18:03.932Z,72.27
2024-04-11T02:19:03.261Z,72.48
2024-04-11T02:20:03.671Z,72.89
2024-04-11T02:21:04.646Z,73.19
2024-04-11T02:22:07.404Z,72.99
2024-04-11T02:23:08.311Z,72.38
2024-04-11T02:24:07.608Z,73.10
2024-04-11T02:25:08.858Z,73.50
2024-04-11T02:26:10.844Z,73.19
2024-04-11T02:27:09.739Z,73.71
2024-04-11T02:28:10.626Z,72.68
2024-04-11T02:29:11.537Z,72.89
2024-04-11T02:30:12.621Z,72.78
2024-04-11T02:31:13.032Z,73.10
2024-04-11T02:32:14.813Z,72.58
2024-04-11T02:33:14.870Z,73.10
2024-04-11T02:34:15.558Z,73.19
2024-04-11T02:35:16.138Z,73.40
2024-04-11T02:36:17.817Z,73.30
2024-04-11T02:37:18.296Z,73.71
2024-04-11T02:38:20.348Z,73.50
2024-04-11T02:39:19.791Z,73.71
2024-04-11T02:40:20.351Z,73.10
2024-04-11T02:41:20.771Z,73.19
2024-04-11T02:42:21.688Z,73.10
2024-04-11T02:43:23.383Z,73.36
2024-04-11T02:44:24.863Z,73.36
2024-04-11T02:45:24.243Z,73.16
2024-04-11T02:46:27.265Z,72.96
2024-04-11T02:47:25.998Z,73.16
2024-04-11T02:48:26.560Z,73.68
2024-04-11T02:49:27.094Z,73.78
2024-04-11T02:50:27.637Z,73.98
2024-04-11T02:51:29.822Z,73.27
2024-04-11T02:52:30.304Z,73.16
2024-04-11T02:53:30.844Z,73.27
2024-04-11T02:54:31.825Z,73.57
2024-04-11T02:55:30.785Z,73.16
2024-04-11T02:56:32.328Z,73.57
2024-04-11T02:57:32.239Z,73.47
2024-04-11T02:58:33.231Z,73.27
2024-04-11T02:59:34.161Z,73.47
2024-04-11T03:00:35.155Z,73.47
2024-04-11T03:01:35.579Z,73.78
2024-04-11T03:02:36.586Z,73.68
2024-04-11T03:03:38.906Z,73.57
2024-04-11T03:04:38.848Z,73.68
2024-04-11T03:05:38.800Z,73.78
2024-04-11T03:06:39.683Z,73.16
2024-04-11T03:07:40.648Z,73.27
2024-04-11T03:08:42.424Z,73.57
2024-04-11T03:09:42.331Z,73.68
2024-04-11T03:10:48.067Z,73.27
2024-04-11T03:11:44.680Z,73.57
2024-04-11T03:12:44.823Z,73.27
2024-04-11T03:13:46.473Z,73.78
2024-04-11T03:14:47.483Z,73.47
2024-04-11T03:15:47.060Z,73.47
2024-04-11T03:16:50.480Z,73.78
2024-04-11T03:17:48.442Z,73.47
2024-04-11T03:18:48.961Z,73.36
2024-04-11T03:19:49.386Z,73.68
2024-04-11T03:20:50.306Z,73.06
2024-04-11T03:21:51.220Z,73.57
2024-04-11T03:22:54.798Z,73.68
2024-04-11T03:23:53.349Z,73.68
2024-04-11T03:24:53.245Z,73.68
2024-04-11T03:25:54.801Z,73.68
2024-04-11T03:26:55.103Z,74.08
2024-04-11T03:27:56.032Z,73.88
2024-04-11T03:28:56.925Z,74.40
2024-04-11T03:29:57.927Z,74.40
2024-04-11T03:30:58.817Z,74.29
2024-04-11T03:31:59.710Z,74.19
2024-04-11T03:33:00.816Z,73.78
2024-04-11T03:34:01.495Z,73.78
2024-04-11T03:35:01.936Z,73.88
2024-04-11T03:36:03.079Z,74.08
2024-04-11T03:37:04.404Z,73.78
2024-04-11T03:38:04.321Z,73.88
2024-04-11T03:39:05.327Z,73.88
2024-04-11T03:40:06.383Z,73.47
2024-04-11T03:41:06.395Z,73.98
2024-04-11T03:42:07.954Z,73.88
2024-04-11T03:43:08.020Z,73.68
2024-04-11T03:44:08.410Z,73.98
2024-04-11T03:45:09.452Z,73.78
2024-04-11T03:46:09.841Z,74.29
2024-04-11T03:47:10.783Z,73.88
2024-04-11T03:48:11.710Z,74.08
2024-04-11T03:49:12.677Z,74.15
2024-04-11T03:50:13.150Z,73.95
2024-04-11T03:51:14.043Z,74.26
2024-04-11T03:52:14.979Z,73.95
2024-04-11T03:53:15.847Z,74.05
2024-04-11T03:54:16.818Z,74.15
2024-04-11T03:55:17.711Z,74.05
2024-04-11T03:56:18.598Z,74.05
2024-04-11T03:57:19.581Z,73.74
2024-04-11T03:58:20.429Z,74.46
2024-04-11T03:59:21.398Z,74.05
2024-04-11T04:00:22.307Z,74.36
2024-04-11T04:01:23.446Z,74.15
2024-04-11T04:02:24.970Z,73.64
2024-04-11T04:03:24.768Z,73.13
2024-04-11T04:04:25.386Z,73.74
2024-04-11T04:05:25.901Z,73.85
2024-04-11T04:06:26.795Z,74.05
2024-04-11T04:07:29.350Z,74.05
2024-04-11T04:08:28.403Z,73.74
2024-04-11T04:09:28.793Z,73.95
2024-04-11T04:10:29.709Z,73.85
2024-04-11T04:11:31.403Z,73.74
2024-04-11T04:12:31.430Z,73.95
2024-04-11T04:13:31.861Z,74.26
2024-04-11T04:14:34.930Z,73.54
2024-04-11T04:15:33.751Z,73.95
2024-04-11T04:16:35.383Z,73.85
2024-04-11T04:17:35.391Z,73.23
2024-04-11T04:18:36.933Z,73.74
2024-04-11T04:19:37.319Z,73.95
2024-04-11T04:20:37.284Z,73.85
2024-04-11T04:21:38.166Z,73.44
2024-04-11T04:22:39.094Z,73.33
2024-04-11T04:23:40.105Z,73.44
2024-04-11T04:24:40.990Z,73.54
2024-04-11T04:25:42.199Z,73.19
2024-04-11T04:26:42.573Z,73.30
2024-04-11T04:27:44.334Z,73.23
2024-04-11T04:28:44.179Z,73.23
2024-04-11T04:29:45.106Z,73.33
2024-04-11T04:30:46.077Z,73.33
2024-04-11T04:31:47.034Z,73.33
2024-04-11T04:32:48.124Z,73.23
2024-04-11T04:33:49.305Z,73.23
2024-04-11T04:34:49.702Z,73.23
2024-04-11T04:35:50.204Z,73.02
2024-04-11T04:36:51.843Z,73.23
2024-04-11T04:37:51.832Z,73.71
2024-04-11T04:38:52.797Z,73.23
2024-04-11T04:39:53.214Z,73.44
2024-04-11T04:40:54.838Z,73.54
2024-04-11T04:41:54.823Z,73.30
2024-04-11T04:42:56.320Z,72.99
2024-04-11T04:43:56.273Z,73.50
2024-04-11T04:44:57.888Z,73.81
2024-04-11T04:45:57.893Z,73.30
2024-04-11T04:46:58.863Z,73.81
2024-04-11T04:47:59.347Z,73.19
2024-04-11T04:49:00.142Z,73.19
2024-04-11T04:50:02.863Z,73.81
2024-04-11T04:51:01.880Z,73.71
2024-04-11T04:52:02.272Z,73.61
2024-04-11T04:53:03.169Z,73.61
2024-04-11T04:54:05.117Z,73.40
2024-04-11T04:55:06.335Z,73.19
2024-04-11T04:56:05.721Z,73.61
2024-04-11T04:57:05.764Z,73.91
2024-04-11T04:58:06.629Z,72.99
2024-04-11T04:59:07.558Z,73.10
2024-04-11T05:00:08.490Z,73.30
2024-04-11T05:01:09.071Z,73.71
2024-04-11T05:02:09.970Z,73.50
2024-04-11T05:03:10.987Z,73.61
2024-04-11T05:04:11.573Z,73.40
2024-04-11T05:05:12.159Z,72.78
2024-04-11T05:06:12.617Z,73.50
2024-04-11T05:07:15.493Z,73.40
2024-04-11T05:08:13.579Z,73.50
2024-04-11T05:09:15.412Z,73.91
2024-04-11T05:10:15.326Z,73.81
2024-04-11T05:11:16.259Z,73.61
2024-04-11T05:12:18.038Z,73.19
2024-04-11T05:13:19.109Z,73.30
2024-04-11T05:14:18.725Z,73.10
2024-04-11T05:15:19.242Z,73.61
2024-04-11T05:16:19.997Z,73.10
2024-04-11T05:17:20.736Z,73.61
2024-04-11T05:18:21.308Z,73.71
2024-04-11T05:19:23.409Z,73.30
2024-04-11T05:20:24.434Z,73.61
2024-04-11T05:21:23.118Z,73.81
2024-04-11T05:22:24.004Z,73.50
2024-04-11T05:23:24.951Z,73.91
2024-04-11T05:24:25.859Z,73.61
2024-04-11T05:25:26.759Z,73.50
2024-04-11T05:26:27.839Z,73.61
2024-04-11T05:27:28.857Z,73.81
2024-04-11T05:28:30.410Z,73.61
2024-04-11T05:29:29.752Z,73.40
2024-04-11T05:30:32.452Z,73.30
2024-04-11T05:31:31.337Z,73.40
2024-04-11T05:32:32.263Z,73.40
2024-04-11T05:33:32.992Z,73.61
2024-04-11T05:34:34.553Z,73.71
2024-04-11T05:35:34.065Z,73.19
2024-04-11T05:36:34.975Z,73.40
2024-04-11T05:37:35.892Z,73.30
2024-04-11T05:38:37.378Z,73.61
2024-04-11T05:39:37.759Z,72.75
2024-04-11T05:40:38.665Z,73.68
2024-04-11T05:41:40.009Z,73.06
2024-04-11T05:42:40.461Z,73.27
2024-04-11T05:43:41.417Z,72.86
2024-04-11T05:44:42.402Z,72.96
2024-04-11T05:45:43.278Z,73.27
2024-04-11T05:46:45.174Z,73.36
2024-04-11T05:47:45.301Z,73.27
2024-04-11T05:48:45.828Z,73.36
2024-04-11T05:49:46.264Z,73.47
2024-04-11T05:50:47.209Z,73.47
2024-04-11T05:51:48.144Z,72.96
2024-04-11T05:52:49.883Z,73.57
2024-04-11T05:53:49.867Z,73.16
2024-04-11T05:54:50.310Z,73.16
2024-04-11T05:55:51.232Z,73.47
2024-04-11T05:56:52.215Z,72.96
2024-04-11T05:57:53.090Z,73.36
2024-04-11T05:58:53.991Z,73.57
2024-04-11T05:59:54.990Z,73.27
2024-04-11T06:00:55.940Z,72.96
2024-04-11T06:01:56.879Z,73.47
2024-04-11T06:02:57.815Z,73.68
2024-04-11T06:03:59.404Z,74.19
2024-04-11T06:04:59.306Z,74.19
2024-04-11T06:06:00.306Z,73.98
2024-04-11T06:07:01.165Z,74.29
2024-04-11T06:08:02.063Z,75.01
2024-04-11T06:09:04.042Z,75.73
2024-04-11T06:10:03.578Z,75.42
2024-04-11T06:11:05.441Z,75.62
2024-04-11T06:12:05.335Z,75.62
2024-04-11T06:13:06.261Z,76.34
2024-04-11T06:14:07.023Z,76.03
2024-04-11T06:15:08.911Z,75.73
2024-04-11T06:16:08.977Z,76.75
2024-04-11T06:17:09.371Z,76.75
2024-04-11T06:18:10.409Z,77.57
2024-04-11T06:19:10.863Z,77.16
2024-04-11T06:20:12.352Z,77.26
2024-04-11T06:21:13.655Z,77.47
2024-04-11T06:22:13.725Z,77.67
2024-04-11T06:23:14.638Z,77.77
2024-04-11T06:24:15.630Z,77.67
2024-04-11T06:25:16.058Z,78.90
2024-04-11T06:26:16.958Z,78.08
2024-04-11T06:27:18.915Z,77.47
2024-04-11T06:28:20.351Z,78.39
2024-04-11T06:29:19.776Z,78.49
2024-04-11T06:30:20.680Z,78.59
2024-04-11T06:31:21.563Z,78.90
2024-04-11T06:32:22.550Z,79.00
2024-04-11T06:33:23.665Z,78.19
2024-04-11T06:34:24.256Z,78.28
2024-04-11T06:35:24.759Z,78.39
2024-04-11T06:36:27.418Z,76.95
2024-04-11T06:37:26.280Z,77.47
2024-04-11T06:38:27.265Z,78.45
2024-04-11T06:39:28.155Z,78.05
2024-04-11T06:40:29.054Z,77.53
2024-04-11T06:41:30.986Z,76.72
2024-04-11T06:42:30.536Z,77.94
2024-04-11T06:43:31.442Z,77.94
2024-04-11T06:44:32.484Z,76.81
2024-04-11T06:45:32.856Z,77.23
2024-04-11T06:46:33.792Z,77.64
2024-04-11T06:47:39.347Z,77.84
2024-04-11T06:48:36.791Z,79.38
2024-04-11T06:49:36.333Z,78.66
2024-04-11T06:50:37.264Z,77.94
2024-04-11T06:51:38.180Z,77.12
2024-04-11T06:52:39.145Z,77.94
2024-04-11T06:53:40.074Z,76.72
2024-04-11T06:54:42.875Z,76.81
2024-04-11T06:55:41.774Z,77.53
2024-04-11T06:56:42.709Z,77.73
2024-04-11T06:57:44.353Z,77.73
2024-04-11T06:58:44.252Z,77.53
2024-04-11T06:59:45.211Z,79.17
2024-04-11T07:00:46.174Z,78.76
2024-04-11T07:01:47.079Z,79.58
2024-04-11T07:02:48.973Z,78.86
2024-04-11T07:03:48.880Z,79.17
2024-04-11T07:04:50.368Z,79.89
2024-04-11T07:05:50.924Z,80.60
2024-04-11T07:06:51.357Z,81.32
2024-04-11T07:07:53.918Z,82.24
2024-04-11T07:08:55.529Z,82.24
2024-04-11T07:09:53.706Z,80.60
2024-04-11T07:10:54.758Z,81.12
2024-04-11T07:11:55.929Z,81.22
2024-04-11T07:12:56.492Z,81.63
2024-04-11T07:13:56.580Z,81.52
2024-04-11T07:14:57.112Z,81.94
2024-04-11T07:15:58.059Z,83.68
2024-04-11T07:16:59.211Z,83.98
2024-04-11T07:17:59.675Z,84.19
2024-04-11T07:19:00.584Z,85.63
2024-04-11T07:20:01.522Z,85.11
2024-04-11T07:21:03.366Z,83.37
2024-04-11T07:22:03.294Z,85.11
2024-04-11T07:23:04.896Z,85.52
2024-04-11T07:24:04.816Z,85.01
2024-04-11T07:25:05.804Z,84.29
2024-04-11T07:26:06.723Z,83.98
2024-04-11T07:27:07.653Z,83.68
2024-04-11T07:28:08.563Z,83.98
2024-04-11T07:29:09.512Z,84.70
2024-04-11T07:30:10.405Z,86.55
2024-04-11T07:31:11.306Z,84.70
2024-04-11T07:32:12.206Z,85.31
2024-04-11T07:33:13.214Z,86.04
2024-04-11T07:34:13.748Z,86.04
2024-04-11T07:35:14.193Z,85.52
2024-04-11T07:36:15.147Z,87.06
2024-04-11T07:37:16.055Z,86.65
2024-04-11T07:38:16.971Z,84.80
2024-04-11T07:39:17.944Z,85.93
2024-04-11T07:40:18.859Z,85.01
2024-04-11T07:41:19.770Z,84.39
2024-04-11T07:42:20.727Z,84.91
2024-04-11T07:43:22.390Z,85.63
2024-04-11T07:44:22.371Z,88.45
2024-04-11T07:45:23.295Z,86.91
2024-04-11T07:46:24.195Z,86.40
2024-04-11T07:47:38.065Z,84.77
2024-04-11T07:48:26.984Z,87.22
2024-04-11T07:49:26.560Z,85.79
2024-04-11T07:50:27.068Z,86.91
2024-04-11T07:51:27.942Z,84.36
2024-04-11T07:52:28.854Z,85.07
2024-04-11T07:53:30.389Z,84.46
2024-04-11T07:54:37.920Z,84.05
2024-04-11T07:55:32.063Z,84.15
2024-04-11T07:56:33.905Z,83.84
2024-04-11T07:57:32.785Z,84.66
2024-04-11T07:58:33.720Z,83.74
2024-04-11T07:59:34.682Z,84.87
2024-04-11T08:00:35.571Z,85.58
2024-04-11T08:01:36.485Z,85.89
2024-04-11T08:02:37.473Z,86.20
2024-04-11T08:03:38.411Z,86.20
2024-04-11T08:04:39.529Z,88.14
2024-04-11T08:05:40.917Z,88.56
2024-04-11T08:06:40.806Z,87.63
2024-04-11T08:07:41.769Z,87.94
2024-04-11T08:08:42.731Z,88.24
2024-04-11T08:09:44.439Z,88.65
2024-04-11T08:10:44.326Z,89.58
2024-04-11T08:11:45.328Z,90.09
2024-04-11T08:12:46.052Z,90.19
2024-04-11T08:13:46.951Z,89.68
2024-04-11T08:14:47.889Z,89.37
2024-04-11T08:15:49.383Z,89.58
2024-04-11T08:16:50.517Z,89.37
2024-04-11T08:17:50.353Z,89.68
2024-04-11T08:18:50.887Z,90.19
2024-04-11T08:19:57.832Z,91.63
2024-04-11T08:20:53.709Z,89.89
2024-04-11T08:21:53.687Z,89.98
2024-04-11T08:22:54.043Z,89.89
2024-04-11T08:23:55.166Z,90.19
2024-04-11T08:25:00.390Z,90.50
2024-04-11T08:25:56.954Z,89.78
2024-04-11T08:26:57.288Z,89.68
2024-04-11T08:27:58.875Z,90.36
2024-04-11T08:28:58.804Z,91.17
2024-04-11T08:29:59.737Z,90.25
2024-04-11T08:31:00.732Z,90.66
2024-04-11T08:32:01.972Z,91.17
2024-04-11T08:33:01.995Z,90.97
2024-04-11T08:34:02.576Z,91.17
2024-04-11T08:35:03.028Z,91.23
2024-04-11T08:36:04.273Z,92.15
2024-04-11T08:37:04.661Z,90.21
2024-04-11T08:38:06.384Z,89.80
2024-04-11T08:39:06.268Z,90.00
2024-04-11T08:40:07.257Z,89.80
2024-04-11T08:41:07.736Z,90.62
2024-04-11T08:42:08.559Z,91.33
2024-04-11T08:43:09.474Z,91.33
2024-04-11T08:44:10.396Z,89.39
2024-04-11T08:45:11.307Z,90.11
2024-04-11T08:46:12.232Z,90.82
2024-04-11T08:47:12.673Z,91.64
2024-04-11T08:48:13.724Z,91.03
2024-04-11T08:49:14.231Z,91.13
2024-04-11T08:50:14.920Z,91.33
2024-04-11T08:51:15.608Z,90.92
2024-04-11T08:52:16.921Z,90.31
2024-04-11T08:53:17.404Z,90.31
2024-04-11T08:54:18.401Z,89.90
2024-04-11T08:55:18.311Z,91.03
2024-04-11T08:56:19.221Z,90.21
2024-04-11T08:57:20.910Z,89.80
2024-04-11T08:58:20.799Z,90.72
2024-04-11T08:59:21.769Z,91.44
2024-04-11T09:00:23.439Z,91.03
2024-04-11T09:01:23.351Z,90.21
2024-04-11T09:02:24.464Z,90.52
2024-04-11T09:03:25.017Z,90.21
2024-04-11T09:04:25.548Z,90.41
2024-04-11T09:05:26.925Z,90.11
2024-04-11T09:06:26.803Z,90.62
2024-04-11T09:07:27.705Z,91.03
2024-04-11T09:08:28.778Z,92.87
2024-04-11T09:09:29.169Z,92.36
2024-04-11T09:10:30.069Z,91.23
2024-04-11T09:11:31.028Z,91.23
2024-04-11T09:12:32.539Z,91.85
2024-04-11T09:13:32.456Z,92.25
2024-04-11T09:14:33.950Z,91.23
2024-04-11T09:15:35.958Z,91.44
2024-04-11T09:16:35.016Z,92.15
2024-04-11T09:17:35.709Z,90.62
2024-04-11T09:18:36.682Z,91.03
2024-04-11T09:19:37.102Z,91.70
2024-04-11T09:20:38.040Z,92.21
2024-04-11T09:21:38.917Z,91.80
2024-04-11T09:22:41.443Z,90.52
2024-04-11T09:23:40.443Z,91.50
2024-04-11T09:24:40.878Z,92.62
2024-04-11T09:25:42.416Z,90.99
2024-04-11T09:26:42.406Z,92.05
2024-04-11T09:27:43.320Z,92.11
2024-04-11T09:28:44.895Z,92.01
2024-04-11T09:29:44.875Z,92.01
2024-04-11T09:30:45.801Z,92.21
2024-04-11T09:31:46.749Z,92.01
2024-04-11T09:32:47.779Z,92.62
2024-04-11T09:33:50.119Z,92.52
2024-04-11T09:34:49.191Z,92.47
2024-04-11T09:35:50.135Z,91.09
2024-04-11T09:36:51.894Z,91.86
2024-04-11T09:37:51.830Z,91.35
2024-04-11T09:38:54.579Z,91.56
2024-04-11T09:39:53.569Z,92.27
2024-04-11T09:40:55.402Z,91.76
2024-04-11T09:41:56.085Z,90.74
2024-04-11T09:42:56.036Z,91.05
2024-04-11T09:43:56.524Z,90.94
2024-04-11T09:44:57.802Z,90.33
2024-04-11T09:45:58.814Z,90.23
2024-04-11T09:46:59.952Z,90.53
2024-04-11T09:47:59.993Z,90.12
2024-04-11T09:49:00.493Z,90.53
2024-04-11T09:50:02.149Z,90.33
2024-04-11T09:51:02.490Z,90.33
2024-04-11T09:52:02.887Z,90.84
2024-04-11T09:53:04.427Z,91.05
2024-04-11T09:54:04.386Z,91.05
2024-04-11T09:55:05.837Z,91.35
2024-04-11T09:56:06.108Z,92.43
2024-04-11T09:57:07.021Z,91.20
2024-04-11T09:58:08.914Z,92.33
2024-04-11T09:59:08.816Z,91.20
2024-04-11T10:00:10.548Z,90.80
2024-04-11T10:01:10.533Z,90.08
2024-04-11T10:02:11.287Z,89.06
2024-04-11T10:03:12.314Z,89.06
2024-04-11T10:04:15.425Z,90.59
2024-04-11T10:05:13.356Z,89.58
2024-04-11T10:06:15.208Z,90.08
2024-04-11T10:07:14.747Z,89.73
2024-04-11T10:08:15.681Z,89.02
2024-04-11T10:09:17.423Z,89.06
2024-04-11T10:10:17.920Z,88.71
2024-04-11T10:11:19.477Z,89.12
2024-04-11T10:12:19.929Z,89.84
2024-04-11T10:13:20.926Z,89.12
2024-04-11T10:14:19.877Z,89.94
2024-04-11T10:15:20.805Z,91.12
2024-04-11T10:16:22.429Z,89.39
2024-04-11T10:17:23.048Z,89.18
2024-04-11T10:18:26.032Z,90.20
2024-04-11T10:19:26.378Z,89.49
2024-04-11T10:20:26.940Z,89.39
2024-04-11T10:21:33.488Z,90.61
2024-04-11T10:22:28.128Z,89.90
2024-04-11T10:23:27.606Z,89.08
2024-04-11T10:24:28.511Z,90.31
2024-04-11T10:25:29.195Z,90.31
2024-04-11T10:26:31.863Z,90.20
2024-04-11T10:27:30.999Z,90.00
2024-04-11T10:28:33.956Z,89.69
2024-04-11T10:29:32.919Z,89.39
2024-04-11T10:30:34.446Z,89.28
2024-04-11T10:31:34.939Z,89.90
2024-04-11T10:32:34.978Z,90.51
2024-04-11T10:33:37.615Z,90.77
2024-04-11T10:34:36.514Z,89.86
2024-04-11T10:35:37.003Z,89.39
2024-04-11T10:36:37.885Z,89.65
2024-04-11T10:37:38.824Z,89.55
2024-04-11T10:38:39.798Z,89.55
2024-04-11T10:39:41.473Z,90.47
2024-04-11T10:40:41.926Z,90.26
2024-04-11T10:41:42.366Z,90.32
2024-04-11T10:42:47.756Z,89.71
2024-04-11T10:43:45.208Z,88.69
2024-04-11T10:44:45.266Z,89.00
2024-04-11T10:45:45.727Z,88.39
2024-04-11T10:46:46.672Z,89.40
2024-04-11T10:47:47.749Z,90.53
2024-04-11T10:48:48.210Z,89.92
2024-04-11T10:49:49.214Z,89.81
2024-04-11T10:50:50.144Z,89.30
2024-04-11T10:51:52.934Z,89.16
2024-04-11T10:52:51.833Z,89.06
2024-04-11T10:53:53.483Z,89.16
2024-04-11T10:54:53.415Z,89.06
2024-04-11T10:55:54.937Z,89.57
2024-04-11T10:56:55.070Z,89.36
2024-04-11T10:57:56.515Z,87.94
2024-04-11T10:58:56.433Z,88.04
2024-04-11T10:59:58.477Z,88.14
2024-04-11T11:00:58.039Z,88.34
2024-04-11T11:02:04.956Z,88.45
2024-04-11T11:03:00.967Z,89.36
2024-04-11T11:03:59.937Z,88.65
2024-04-11T11:05:02.437Z,89.26
2024-04-11T11:06:01.417Z,89.06
2024-04-11T11:07:02.297Z,88.75
2024-04-11T11:08:03.226Z,89.73
2024-04-11T11:09:04.999Z,89.12
2024-04-11T11:10:05.063Z,88.81
2024-04-11T11:11:05.477Z,88.51
2024-04-11T11:12:06.407Z,87.94
2024-04-11T11:13:07.965Z,88.31
2024-04-11T11:14:09.443Z,88.40
2024-04-11T11:15:08.894Z,89.42
2024-04-11T11:16:09.970Z,88.71
2024-04-11T11:17:10.934Z,89.01
2024-04-11T11:18:15.514Z,88.00
2024-04-11T11:19:11.414Z,88.51
2024-04-11T11:20:13.929Z,87.79
2024-04-11T11:21:13.342Z,88.57
2024-04-11T11:22:14.246Z,87.04
2024-04-11T11:23:15.161Z,87.55
2024-04-11T11:24:16.132Z,88.36
2024-04-11T11:25:17.321Z,87.65
2024-04-11T11:26:19.456Z,87.35
2024-04-11T11:27:18.374Z,88.26
2024-04-11T11:28:19.949Z,87.35
2024-04-11T11:29:20.427Z,87.24
2024-04-11T11:30:20.852Z,87.92
2024-04-11T11:31:21.750Z,88.73
2024-04-11T11:32:22.754Z,87.10
2024-04-11T11:33:23.749Z,87.41
2024-04-11T11:34:24.280Z,87.51
2024-04-11T11:35:24.753Z,86.80
2024-04-11T11:36:26.471Z,88.02
2024-04-11T11:37:26.385Z,87.61
2024-04-11T11:38:27.346Z,86.90
2024-04-11T11:39:29.962Z,86.49
2024-04-11T11:40:30.452Z,87.47
2024-04-11T11:41:29.909Z,88.28
2024-04-11T11:42:30.807Z,87.16
2024-04-11T11:43:31.774Z,86.45
2024-04-11T11:44:32.721Z,86.35
2024-04-11T11:45:33.606Z,85.74
2024-04-11T11:46:35.435Z,86.25
2024-04-11T11:47:36.786Z,86.35
2024-04-11T11:48:36.567Z,86.55
2024-04-11T11:49:36.543Z,86.15
2024-04-11T11:50:39.521Z,86.15
2024-04-11T11:51:38.411Z,85.98
2024-04-11T11:52:47.798Z,86.29
2024-04-11T11:53:40.023Z,86.49
2024-04-11T11:54:42.439Z,87.41
2024-04-11T11:55:44.234Z,87.81
2024-04-11T11:56:43.711Z,86.69
2024-04-11T11:57:43.683Z,87.00
2024-04-11T11:58:44.121Z,86.80
2024-04-11T11:59:45.056Z,87.10
2024-04-11T12:00:47.025Z,86.80
2024-04-11T12:01:47.451Z,86.39
2024-04-11T12:02:47.999Z,87.00
2024-04-11T12:03:48.543Z,85.78
2024-04-11T12:04:51.154Z,86.08
2024-04-11T12:05:49.756Z,85.78
2024-04-11T12:06:50.747Z,87.10
2024-04-11T12:07:52.454Z,86.29
2024-04-11T12:08:52.409Z,86.19
2024-04-11T12:09:54.955Z,85.94
2024-04-11T12:10:53.884Z,87.00
2024-04-11T12:11:54.849Z,86.96
2024-04-11T12:12:56.977Z,86.25
2024-04-11T12:13:56.421Z,86.55
2024-04-11T12:14:57.953Z,86.45
2024-04-11T12:15:58.413Z,86.15
2024-04-11T12:17:01.937Z,86.15
2024-04-11T12:17:59.900Z,86.25
2024-04-11T12:19:02.460Z,86.25
2024-04-11T12:20:01.386Z,86.71
2024-04-11T12:21:02.382Z,85.43
2024-04-11T12:22:03.957Z,86.55
2024-04-11T12:23:04.436Z,86.04
2024-04-11T12:24:05.527Z,86.25
2024-04-11T12:25:05.507Z,85.33
2024-04-11T12:26:07.066Z,85.84
2024-04-11T12:27:07.061Z,85.80
2024-04-11T12:28:07.936Z,86.61
2024-04-11T12:29:09.438Z,85.29
2024-04-11T12:30:09.432Z,85.39
2024-04-11T12:31:13.331Z,85.19
2024-04-11T12:32:11.942Z,84.78
2024-04-11T12:33:12.014Z,85.09
2024-04-11T12:34:12.549Z,85.39
2024-04-11T12:35:13.514Z,84.88
2024-04-11T12:36:14.434Z,85.80
2024-04-11T12:37:15.973Z,85.29
2024-04-11T12:38:17.446Z,85.19
2024-04-11T12:39:16.993Z,84.78
2024-04-11T12:40:19.985Z,85.70
2024-04-11T12:41:18.436Z,85.15
2024-04-11T12:42:19.338Z,85.25
2024-04-11T12:43:20.229Z,85.25
2024-04-11T12:44:22.979Z,84.74
2024-04-11T12:45:22.462Z,85.55
2024-04-11T12:46:22.896Z,85.46
2024-04-11T12:47:25.585Z,85.55
2024-04-11T12:48:28.690Z,84.44
2024-04-11T12:49:27.959Z,84.84
2024-04-11T12:50:27.992Z,84.44
2024-04-11T12:51:26.953Z,84.74
2024-04-11T12:52:27.477Z,84.84
2024-04-11T12:53:27.998Z,85.46
2024-04-11T12:54:32.240Z,85.15
2024-04-11T12:55:29.311Z,85.76
2024-04-11T12:56:30.274Z,85.76
2024-04-11T12:57:31.563Z,84.74
2024-04-11T12:58:32.529Z,85.35
2024-04-11T12:59:32.972Z,85.55
2024-04-11T13:00:33.928Z,85.55
2024-04-11T13:01:34.430Z,85.55
2024-04-11T13:02:35.435Z,85.05